Time;durP1;ratioP1;P1;durP2;ratioP2;P2;SDS_P1;SDS_P2;PMS_P1;PMS_P2;Temp;Humidity;BMP_temperature;BMP_pressure;BME280_temperature;BME280_humidity;BME280_pressure;Samples;Min_cycle;Max_cycle;Signal;HPM_P1;HPM_P2
2020/12/15 19:59:51;;;;;;;;;;;;;;;;;;5061841;28;19928;-71
2020/12/15 20:02:18;;;;;;;;;;;;;;;;;;5007510;28;97415;-70
2020/12/15 20:06:26;;;;;;;;;;;;;;;;;;5128916;27;19919;-68
2020/12/15 20:08:52;;;;;;;;;;;;;;;;;;5144478;27;19915;-68
2020/12/15 20:11:18;;;;;;;;;;;;;;;;;;5099662;27;75801;-69
2020/12/15 20:13:44;;;;;;;;;;;;;;;;;;5123073;27;19912;-69
2020/12/15 20:16:10;;;;;;;;;;;;;;;;;;5125556;27;19927;-69
2020/12/15 20:18:36;;;;;;;;;;;;;;;;;;5105696;27;19922;-68
2020/12/15 20:21:03;;;;;;;;;;;;;;;;;;5109942;27;19912;-68
2020/12/15 20:23:29;;;;;;;;;;;;;;;;;;5126244;27;19911;-72
2020/12/15 20:25:55;;;;;;;;;;;;;;;;;;5083320;28;162895;-73
2020/12/15 20:28:21;;;;;;;;;;;;;;;;;;5067439;28;19943;-73
2020/12/15 20:30:47;;;;;;;;;;;;;;;;;;5083016;27;20653;-73
2020/12/15 20:36:20;;;;;;;;;;;;;;;;;;5041942;27;110133;-71
2020/12/15 20:38:46;;;;;;;;;;;;;;;;;;5044957;28;20390;-69
2020/12/15 20:41:12;;;;;;;;;;;;;;;;;;5035667;28;19917;-70
2020/12/15 20:43:38;;;;;;;;;;;;;;;;;;5020038;28;19929;-70
2020/12/15 20:46:04;;;;;;;;;;;;;;;;;;5023373;28;20005;-69
2020/12/15 21:00:46;;;;;;;;;;;;;;;22.56;47.11;94691.97;5021223;28;19929;-70
2020/12/15 21:39:51;;;;;;;;;;;;;;;;;;5058124;27;100211;-74
2020/12/15 21:42:17;;;;;;;;;;;;;;;;;;5049313;28;19924;-79
2020/12/15 21:45:46;;;;;;;;;;;;;;;;;;5033162;27;20283;-70
2020/12/15 21:48:12;;;;;;;;;;;;;;;;;;5033644;28;92198;-76
2020/12/15 21:50:49;;;;;;;;;;;;;;;22.31;47.82;94670.59;5054670;27;9908;-73
2020/12/15 21:53:15;;;;;;;;;;;;;;;22.11;48.20;94671.31;5075237;28;10248;-72
2020/12/15 22:00:43;;;;;;;;;;;;;;;;;;5074623;22;11232;-75
2020/12/15 22:03:09;;;;;;;;;;;;;;;;;;5009510;28;94052;-70
2020/12/15 22:05:35;;;;;;;;;;;;;;;;;;5022740;28;9750;-70
2020/12/15 22:08:01;;;;;;;;;;;;;;;;;;5043671;28;9564;-67
2020/12/15 22:10:27;;;;;;;;;;;;;;;;;;5028786;28;9911;-68
2020/12/15 22:12:53;;;;;;;;;;;;;;;;;;5016171;28;9911;-69
2020/12/15 22:15:19;;;;;;;;;;;;;;;;;;5016438;28;5276;-65
2020/12/15 22:17:45;;;;;;;;;;;;;;;;;;5024597;28;5407;-62
2020/12/15 22:20:11;;;;;;;;;;;;;;;;;;4984652;28;69711;-67
2020/12/15 22:25:07;;;;;;;;;;;;;;;22.27;42.33;94678.28;5034599;27;9829;-70
2020/12/15 22:27:34;;;;;;;;;;;;;;;22.31;42.76;94671.38;4984352;28;5942;-62
2020/12/15 22:31:11;;;;;;;;;;;;;;;22.25;42.19;94674.28;5053126;27;20015;-64
2020/12/15 22:33:37;;;;;;;;;;;;;;;22.38;44.46;94677.25;5024091;27;19960;-64
2020/12/15 22:36:34;;;;;;;;;;;;;;;22.35;43.16;94671.69;5040368;27;20344;-65
2020/12/15 22:39:00;;;;;;;;;;;;;;;22.49;43.21;94672.81;5019541;28;20420;-64
2020/12/15 22:41:27;;;;;;;;;;;;;;;22.71;42.80;94675.28;5016923;28;19949;-69
2020/12/15 22:43:53;;;;;;;;;;;;;;;22.63;44.05;94673.09;5057836;28;19921;-68
2020/12/15 22:46:55;;;;;;;;;;;;;;;22.40;44.14;94661.06;5042139;27;19924;-71
2020/12/15 22:51:24;;;;;;;;;;;;;;;23.07;45.80;94673.53;4965693;28;19915;-67
2020/12/15 22:54:44;;;;;;;8.85;2.47;;;;;;;22.07;44.67;94673.66;5049173;27;20388;-65
2020/12/15 22:57:10;;;;;;;6.80;2.22;;;;;;;21.75;45.93;94664.94;5053193;28;20471;-65
2020/12/15 22:59:36;;;;;;;8.03;2.50;;;;;;;21.67;45.89;94665.41;5054244;28;20040;-65
2020/12/15 23:02:02;;;;;;;6.93;1.98;;;;;;;21.57;46.41;94666.13;5054309;28;20275;-65
